This is the latest recevied weather packets stored in our database for station/object W8KHW. If no packets are shown the sender has not sent any weather packets the latest 10 day(s).
| Time | Temp. | Humidity | Pressure | Rain* | Wind** | Luminosity | Snow |
|---|---|---|---|---|---|---|---|
| 1777859942 | 10° C | 75% | 1014.1 hPa | 0 mm | - | - | - |
| 1777859441 | 10° C | 74% | 1014.5 hPa | 0 mm | - | - | - |
| 1777858941 | 10° C | 74% | 1014 hPa | 0 mm | - | - | - |
| 1777858441 | 10° C | 74% | 1014.1 hPa | 0 mm | - | - | - |
| 1777857941 | 10° C | 74% | 1014.3 hPa | 0 mm | - | - | - |
| 1777857441 | 10° C | 76% | 1014.4 hPa | 0 mm | - | - | - |
| 1777856940 | 10° C | 74% | 1014.3 hPa | 0 mm | - | - | - |
| 1777856440 | 10° C | 74% | 1014.3 hPa | 0 mm | - | - | - |
| 1777855940 | 10° C | 74% | 1014 hPa | 0 mm | - | - | - |
| 1777855440 | 10° C | 73% | 1014 hPa | 0 mm | - | - | - |
| 1777854940 | 10° C | 73% | 1013.9 hPa | 0 mm | - | - | - |
| 1777854439 | 10° C | 75% | 1014.1 hPa | 0 mm | - | - | - |
| 1777853939 | 10° C | 76% | 1014.1 hPa | 0 mm | - | - | - |
| 1777853439 | 10.56° C | 75% | 1014.1 hPa | 0 mm | - | - | - |
| 1777852939 | 10.56° C | 74% | 1014.5 hPa | 0 mm | - | - | - |
| 1777852439 | 10.56° C | 73% | 1014.5 hPa | 0 mm | - | - | - |
| 1777851938 | 10.56° C | 72% | 1014.8 hPa | 0 mm | - | - | - |
| 1777851438 | 10.56° C | 69% | 1015.1 hPa | 0 mm | - | - | - |
| 1777850938 | 11.11° C | 65% | 1015.2 hPa | 0 mm | - | - | - |
| 1777850438 | 12.22° C | 62% | 1015.1 hPa | 0 mm | - | - | - |
| 1777849938 | 12.22° C | 58% | 1015.1 hPa | 0 mm | - | - | - |
| 1777849438 | 12.22° C | 57% | 1015 hPa | 0 mm | - | - | - |
| 1777848937 | 12.78° C | 55% | 1014.9 hPa | 0 mm | - | - | - |
| 1777848437 | 13.33° C | 50% | 1014.7 hPa | 0 mm | - | - | - |
| 1777847937 | 14.44° C | 47% | 1014.6 hPa | 0 mm | - | - | - |
* Rain latest hour (hover to see other rain measurements)
** Current wind speed in m/s (hover to see current wind gust speed)